createdAt,value
2023-05-25T00:01:02.978Z,71.70
2023-05-25T00:03:32.172Z,71.82
2023-05-25T00:06:04.094Z,71.81
2023-05-25T00:08:30.878Z,71.90
2023-05-25T00:10:57.698Z,72.01
2023-05-25T00:13:24.886Z,72.16
2023-05-25T00:15:51.721Z,72.17
2023-05-25T00:18:18.870Z,72.24
2023-05-25T00:20:47.470Z,72.16
2023-05-25T00:23:14.602Z,72.34
2023-05-25T00:25:41.561Z,72.15
2023-05-25T00:28:08.512Z,72.55
2023-05-25T00:30:35.273Z,72.43
2023-05-25T00:33:03.135Z,72.77
2023-05-25T00:35:29.997Z,72.84
2023-05-25T00:37:56.748Z,72.75
2023-05-25T00:40:23.578Z,72.85
2023-05-25T00:42:52.545Z,72.94
2023-05-25T00:45:19.336Z,72.99
2023-05-25T00:47:51.294Z,73.25
2023-05-25T00:50:21.891Z,72.91
2023-05-25T00:52:49.821Z,72.81
2023-05-25T00:55:19.000Z,72.62
2023-05-25T00:57:51.840Z,72.79
2023-05-25T01:00:19.147Z,72.82
2023-05-25T01:02:46.602Z,72.74
2023-05-25T01:05:17.624Z,73.00
2023-05-25T01:07:45.741Z,73.18
2023-05-25T01:10:16.319Z,73.08
2023-05-25T01:12:46.058Z,73.17
2023-05-25T01:15:12.936Z,73.45
2023-05-25T01:17:40.325Z,73.44
2023-05-25T01:20:11.331Z,73.58
2023-05-25T01:22:51.523Z,73.86
2023-05-25T01:25:30.628Z,73.82
2023-05-25T01:28:04.151Z,73.88
2023-05-25T01:30:32.693Z,73.99
2023-05-25T01:33:01.220Z,74.08
2023-05-25T01:35:28.541Z,73.88
2023-05-25T01:37:56.208Z,73.89
2023-05-25T01:40:23.005Z,74.18
2023-05-25T01:42:49.753Z,74.37
2023-05-25T01:47:55.821Z,74.78
2023-05-25T01:50:40.881Z,74.63
2023-05-25T01:53:12.961Z,74.70
2023-05-25T01:55:45.331Z,74.63
2023-05-25T01:58:15.291Z,74.71
2023-05-25T02:00:42.867Z,75.00
2023-05-25T02:03:10.642Z,75.06
2023-05-25T02:05:38.310Z,74.99
2023-05-25T02:08:05.174Z,75.18
2023-05-25T02:10:31.923Z,75.37
2023-05-25T02:12:58.730Z,75.52
2023-05-25T02:15:25.665Z,75.67
2023-05-25T02:17:52.399Z,75.59
2023-05-25T02:20:19.302Z,75.94
2023-05-25T02:22:46.196Z,75.87
2023-05-25T02:25:13.089Z,75.88
2023-05-25T02:27:39.850Z,76.13
2023-05-25T02:30:07.854Z,76.17
2023-05-25T02:32:35.342Z,76.32
2023-05-25T02:35:02.327Z,76.23
2023-05-25T02:37:29.259Z,76.44
2023-05-25T02:39:56.054Z,76.46
2023-05-25T02:42:22.813Z,76.39
2023-05-25T02:44:49.630Z,76.45
2023-05-25T02:47:18.136Z,76.56
2023-05-25T02:49:45.781Z,76.55
2023-05-25T02:52:12.641Z,76.42
2023-05-25T02:54:39.775Z,76.52
2023-05-25T02:57:06.722Z,76.46
2023-05-25T02:59:33.480Z,76.72
2023-05-25T03:02:00.460Z,76.82
2023-05-25T03:04:27.381Z,76.91
2023-05-25T03:06:54.134Z,76.91
2023-05-25T03:09:21.023Z,77.00
2023-05-25T03:11:47.816Z,77.15
2023-05-25T03:14:14.706Z,77.18
2023-05-25T03:16:41.532Z,77.25
2023-05-25T03:19:08.669Z,77.03
2023-05-25T03:21:35.507Z,77.08
2023-05-25T03:24:02.265Z,77.02
2023-05-25T03:26:29.058Z,77.03
2023-05-25T03:28:55.867Z,77.01
2023-05-25T03:31:23.420Z,77.06
2023-05-25T03:33:50.147Z,77.13
2023-05-25T03:36:17.676Z,77.27
2023-05-25T03:38:45.188Z,77.20
2023-05-25T03:41:11.979Z,77.08
2023-05-25T03:43:38.732Z,76.96
2023-05-25T03:46:05.553Z,76.97
2023-05-25T03:48:32.299Z,77.31
2023-05-25T03:50:59.093Z,77.01
2023-05-25T03:53:25.954Z,77.03
2023-05-25T03:55:52.734Z,76.95
2023-05-25T03:58:19.509Z,76.92
2023-05-25T04:00:49.125Z,77.03
2023-05-25T04:03:16.444Z,77.19
2023-05-25T04:05:45.934Z,77.36
2023-05-25T04:08:18.178Z,77.50
2023-05-25T04:10:45.503Z,77.51
2023-05-25T04:13:12.915Z,77.36
2023-05-25T04:15:39.902Z,77.56
2023-05-25T04:18:06.745Z,77.56
2023-05-25T04:20:33.662Z,77.43
2023-05-25T04:23:00.757Z,77.49
2023-05-25T04:25:29.510Z,77.57
2023-05-25T04:27:56.868Z,77.56
2023-05-25T04:30:24.164Z,77.78
2023-05-25T04:32:51.214Z,77.77
2023-05-25T04:35:21.061Z,77.83
2023-05-25T04:37:48.484Z,77.70
2023-05-25T04:40:15.349Z,77.79
2023-05-25T04:42:42.179Z,77.85
2023-05-25T04:45:10.592Z,78.16
2023-05-25T04:47:41.177Z,78.19
2023-05-25T04:50:11.018Z,78.24
2023-05-25T04:52:37.813Z,78.29
2023-05-25T04:55:04.832Z,78.24
2023-05-25T04:57:31.755Z,78.40
2023-05-25T04:59:59.009Z,78.48
2023-05-25T05:02:26.394Z,78.28
2023-05-25T05:04:54.006Z,78.28
2023-05-25T05:07:23.739Z,78.29
2023-05-25T05:09:50.747Z,78.32
2023-05-25T05:12:17.539Z,78.51
2023-05-25T05:14:44.359Z,78.59
2023-05-25T05:17:12.128Z,78.59
2023-05-25T05:19:38.902Z,78.42
2023-05-25T05:22:06.021Z,78.48
2023-05-25T05:24:32.791Z,78.46
2023-05-25T05:26:59.749Z,78.32
2023-05-25T05:29:28.731Z,78.47
2023-05-25T05:31:56.115Z,78.47
2023-05-25T05:34:22.950Z,78.42
2023-05-25T05:36:57.443Z,78.25
2023-05-25T05:39:25.212Z,78.38
2023-05-25T05:41:52.163Z,78.21
2023-05-25T05:44:20.611Z,78.16
2023-05-25T05:46:47.490Z,78.16
2023-05-25T05:49:14.387Z,78.16
2023-05-25T05:51:41.191Z,77.96
2023-05-25T05:54:07.917Z,77.96
2023-05-25T05:56:34.704Z,77.85
2023-05-25T05:59:01.523Z,77.72
2023-05-25T06:01:28.290Z,77.69
2023-05-25T06:03:56.121Z,77.75
2023-05-25T06:06:23.003Z,77.54
2023-05-25T06:08:49.826Z,77.42
2023-05-25T06:11:16.624Z,77.48
2023-05-25T06:13:45.417Z,77.62
2023-05-25T06:16:13.403Z,77.46
2023-05-25T06:18:40.243Z,77.17
2023-05-25T06:21:07.197Z,77.29
2023-05-25T06:23:34.023Z,77.25
2023-05-25T06:26:05.827Z,77.45
2023-05-25T06:28:32.803Z,77.07
2023-05-25T06:30:59.618Z,77.12
2023-05-25T06:33:26.530Z,77.03
2023-05-25T06:35:58.178Z,77.15
2023-05-25T06:38:25.156Z,76.88
2023-05-25T06:40:52.060Z,76.85
2023-05-25T06:43:19.028Z,76.85
2023-05-25T06:45:46.420Z,76.57
2023-05-25T06:48:13.640Z,76.48
2023-05-25T06:50:40.496Z,76.53
2023-05-25T06:53:07.368Z,76.45
2023-05-25T06:55:34.140Z,76.37
2023-05-25T06:58:00.971Z,76.29
2023-05-25T07:00:27.743Z,76.30
2023-05-25T07:02:54.603Z,76.07
2023-05-25T07:05:22.099Z,75.71
2023-05-25T07:07:48.943Z,75.64
2023-05-25T07:10:15.839Z,75.80
2023-05-25T07:12:42.644Z,75.75
2023-05-25T07:15:10.348Z,75.63
2023-05-25T07:17:38.794Z,75.65
2023-05-25T07:20:06.465Z,76.00
2023-05-25T07:22:33.422Z,76.39
2023-05-25T07:25:00.303Z,76.78
2023-05-25T07:27:27.139Z,77.07
2023-05-25T07:29:53.872Z,77.51
2023-05-25T07:32:20.738Z,77.91
2023-05-25T07:34:47.532Z,78.26
2023-05-25T07:37:14.256Z,78.39
2023-05-25T07:39:41.137Z,79.09
2023-05-25T07:42:07.970Z,79.61
2023-05-25T07:44:35.356Z,80.13
2023-05-25T07:47:02.237Z,80.31
2023-05-25T07:49:29.105Z,80.78
2023-05-25T07:51:55.987Z,80.43
2023-05-25T07:54:22.741Z,78.57
2023-05-25T07:56:49.554Z,76.39
2023-05-25T07:59:16.315Z,73.53
2023-05-25T08:01:43.360Z,70.36
2023-05-25T08:04:10.357Z,67.14
2023-05-25T08:06:37.235Z,64.58
2023-05-25T08:09:05.106Z,60.98
2023-05-25T08:11:31.935Z,59.10
2023-05-25T08:14:00.376Z,57.57
2023-05-25T08:16:27.386Z,55.50
2023-05-25T08:18:54.242Z,53.79
2023-05-25T08:21:21.073Z,51.83
2023-05-25T08:23:48.094Z,50.84
2023-05-25T08:26:34.213Z,49.55
2023-05-25T08:29:04.350Z,48.30
2023-05-25T08:31:32.639Z,47.08
2023-05-25T08:34:02.867Z,45.99
2023-05-25T08:36:29.703Z,45.01
2023-05-25T08:38:57.148Z,43.80
2023-05-25T08:41:23.992Z,43.62
2023-05-25T08:43:50.926Z,42.25
2023-05-25T08:46:29.092Z,41.95
2023-05-25T08:49:04.343Z,41.21
2023-05-25T08:51:39.515Z,40.84
2023-05-25T08:54:09.247Z,40.22
2023-05-25T08:56:59.990Z,40.08
2023-05-25T08:59:30.124Z,39.63
2023-05-25T09:02:06.094Z,38.98
2023-05-25T09:04:34.732Z,37.86
2023-05-25T09:07:10.312Z,36.77
2023-05-25T09:09:39.704Z,35.95
2023-05-25T09:12:07.537Z,35.75
2023-05-25T09:14:35.287Z,35.42
2023-05-25T09:17:02.231Z,35.36
2023-05-25T09:19:29.108Z,35.10
2023-05-25T09:22:03.219Z,34.65
2023-05-25T09:24:41.548Z,33.87
2023-05-25T09:27:12.265Z,34.23
2023-05-25T09:29:39.332Z,33.61
2023-05-25T09:32:08.864Z,34.14
2023-05-25T09:34:35.815Z,33.32
2023-05-25T09:37:19.484Z,32.75
2023-05-25T09:39:47.951Z,32.75
2023-05-25T09:42:14.846Z,32.83
2023-05-25T09:44:42.991Z,32.69
2023-05-25T09:47:10.341Z,32.69
2023-05-25T09:49:37.176Z,32.71
2023-05-25T09:52:04.224Z,32.08
2023-05-25T09:54:31.341Z,32.25
2023-05-25T09:56:59.901Z,32.33
2023-05-25T09:59:27.299Z,32.08
2023-05-25T10:01:54.280Z,31.49
2023-05-25T10:04:21.370Z,30.91
2023-05-25T10:06:51.803Z,30.59
2023-05-25T10:09:19.824Z,30.86
2023-05-25T10:11:48.256Z,30.52
2023-05-25T10:14:20.161Z,30.52
2023-05-25T10:16:52.010Z,30.73
2023-05-25T10:19:42.002Z,31.07
2023-05-25T10:22:24.201Z,30.97
2023-05-25T10:25:04.869Z,31.65
2023-05-25T10:27:41.363Z,31.64
2023-05-25T10:30:09.916Z,31.58
2023-05-25T10:32:37.961Z,31.64
2023-05-25T10:35:09.143Z,31.71
2023-05-25T10:37:36.475Z,32.50
2023-05-25T10:40:03.802Z,32.82
2023-05-25T10:42:31.139Z,33.08
2023-05-25T10:44:58.496Z,33.08
2023-05-25T10:47:26.196Z,33.80
2023-05-25T10:50:01.972Z,34.02
2023-05-25T10:52:29.982Z,34.29
2023-05-25T10:54:58.169Z,34.01
2023-05-25T10:57:26.154Z,34.15
2023-05-25T11:00:02.306Z,34.39
2023-05-25T11:02:30.347Z,34.23
2023-05-25T11:05:28.903Z,34.55
2023-05-25T11:07:57.213Z,34.99
2023-05-25T11:10:50.230Z,35.05
2023-05-25T11:13:23.883Z,35.20
2023-05-25T11:16:29.437Z,35.60
2023-05-25T11:18:58.693Z,36.51
2023-05-25T11:21:28.250Z,36.60
2023-05-25T11:23:56.081Z,36.63
2023-05-25T11:26:28.805Z,36.41
2023-05-25T11:28:59.072Z,35.69
2023-05-25T11:31:32.364Z,35.96
2023-05-25T11:34:01.670Z,35.34
2023-05-25T11:36:33.749Z,36.34
2023-05-25T11:39:08.485Z,36.91
2023-05-25T11:41:48.857Z,36.26
2023-05-25T11:44:15.628Z,36.14
2023-05-25T11:46:43.938Z,35.96
2023-05-25T11:49:10.925Z,36.49
2023-05-25T11:51:38.107Z,36.25
2023-05-25T11:54:05.048Z,35.85
2023-05-25T11:56:36.029Z,35.48
2023-05-25T11:59:08.123Z,35.10
2023-05-25T12:01:34.906Z,35.85
2023-05-25T12:04:09.385Z,35.69
2023-05-25T12:06:36.836Z,35.38
2023-05-25T12:09:08.323Z,35.54
2023-05-25T12:11:38.833Z,36.01
2023-05-25T12:14:07.351Z,36.12
2023-05-25T12:16:39.052Z,36.17
2023-05-25T12:19:07.320Z,36.51
2023-05-25T12:21:36.586Z,35.85
2023-05-25T12:24:06.341Z,35.81
2023-05-25T12:26:33.238Z,36.30
2023-05-25T12:29:04.148Z,36.05
2023-05-25T12:31:41.436Z,36.17
2023-05-25T12:34:18.499Z,36.06
2023-05-25T12:36:49.168Z,35.93
2023-05-25T12:39:17.532Z,35.68
2023-05-25T12:41:54.467Z,36.14
2023-05-25T12:44:21.774Z,36.11
2023-05-25T12:46:50.262Z,35.62
2023-05-25T12:49:34.334Z,36.31
2023-05-25T12:52:03.996Z,36.13
2023-05-25T12:54:45.067Z,36.20
2023-05-25T12:57:17.151Z,36.08
2023-05-25T12:59:47.999Z,35.77
2023-05-25T13:02:15.180Z,36.35
2023-05-25T13:04:42.651Z,36.05
2023-05-25T13:07:10.147Z,36.32
2023-05-25T13:09:37.833Z,36.70
2023-05-25T13:12:05.037Z,36.08
2023-05-25T13:14:31.856Z,36.09
2023-05-25T13:16:58.943Z,36.48
2023-05-25T13:19:26.964Z,36.86
2023-05-25T13:21:55.554Z,37.53
2023-05-25T13:24:22.876Z,37.76
2023-05-25T13:26:51.090Z,38.52
2023-05-25T13:29:18.401Z,39.39
2023-05-25T13:31:45.298Z,39.93
2023-05-25T13:34:12.221Z,40.25
2023-05-25T13:36:38.954Z,40.56
2023-05-25T13:39:05.692Z,41.04
2023-05-25T13:41:32.550Z,40.88
2023-05-25T13:43:59.343Z,41.39
2023-05-25T13:46:34.871Z,41.28
2023-05-25T13:49:02.930Z,41.68
2023-05-25T13:51:29.735Z,42.34
2023-05-25T13:53:56.513Z,42.01
2023-05-25T13:56:23.502Z,42.09
2023-05-25T13:58:50.330Z,41.86
2023-05-25T14:01:17.092Z,41.83
2023-05-25T14:03:44.210Z,41.24
2023-05-25T14:06:11.174Z,41.57
2023-05-25T14:08:38.101Z,41.69
2023-05-25T14:11:04.980Z,41.15
2023-05-25T14:13:31.752Z,40.93
2023-05-25T14:15:58.594Z,41.01
2023-05-25T14:18:25.450Z,40.77
2023-05-25T14:20:52.836Z,40.88
2023-05-25T14:23:19.671Z,40.93
2023-05-25T14:25:47.169Z,40.90
2023-05-25T14:28:14.765Z,40.81
2023-05-25T14:30:41.881Z,41.23
2023-05-25T14:33:14.080Z,41.04
2023-05-25T14:35:42.954Z,40.82
2023-05-25T14:38:10.188Z,40.58
2023-05-25T14:40:36.965Z,40.30
2023-05-25T14:43:03.804Z,40.42
2023-05-25T14:45:30.683Z,40.71
2023-05-25T14:48:11.958Z,40.54
2023-05-25T14:50:44.648Z,40.64
2023-05-25T14:53:12.059Z,40.84
2023-05-25T14:55:38.846Z,40.32
2023-05-25T14:58:05.710Z,39.90
2023-05-25T15:00:32.650Z,39.23
2023-05-25T15:02:59.500Z,39.57
2023-05-25T15:05:26.287Z,39.64
2023-05-25T15:07:53.068Z,39.77
2023-05-25T15:10:19.931Z,39.97
2023-05-25T15:12:46.642Z,39.98
2023-05-25T15:15:13.459Z,40.07
2023-05-25T15:17:40.681Z,39.98
2023-05-25T15:20:07.861Z,39.14
2023-05-25T15:22:34.603Z,38.93
2023-05-25T15:25:02.775Z,39.16
2023-05-25T15:27:29.734Z,38.88
2023-05-25T15:29:56.624Z,39.00
2023-05-25T15:32:23.376Z,38.82
2023-05-25T15:34:50.107Z,38.44
2023-05-25T15:37:16.902Z,38.86
2023-05-25T15:39:43.823Z,39.17
2023-05-25T15:42:10.615Z,38.95
2023-05-25T15:44:37.335Z,39.54
2023-05-25T15:47:04.251Z,40.69
2023-05-25T15:49:32.193Z,41.02
2023-05-25T15:51:58.917Z,41.01
2023-05-25T15:54:25.737Z,41.19
2023-05-25T15:56:52.504Z,41.44
2023-05-25T15:59:19.327Z,42.11
2023-05-25T16:01:46.230Z,42.17
2023-05-25T16:04:13.163Z,42.51
2023-05-25T16:06:40.080Z,42.17
2023-05-25T16:09:06.858Z,41.91
2023-05-25T16:11:34.265Z,41.82
2023-05-25T16:14:01.137Z,41.95
2023-05-25T16:16:27.993Z,42.17
2023-05-25T16:18:54.793Z,42.03
2023-05-25T16:21:21.642Z,42.05
2023-05-25T16:23:48.426Z,42.88
2023-05-25T16:26:15.194Z,42.93
2023-05-25T16:28:42.096Z,42.98
2023-05-25T16:31:08.842Z,43.16
2023-05-25T16:33:35.646Z,43.08
2023-05-25T16:36:02.566Z,43.79
2023-05-25T16:38:29.382Z,43.42
2023-05-25T16:40:56.232Z,43.35
2023-05-25T16:43:25.259Z,44.08
2023-05-25T16:45:52.627Z,43.89
2023-05-25T16:48:21.601Z,44.17
2023-05-25T16:50:49.965Z,44.13
2023-05-25T16:53:16.690Z,44.24
2023-05-25T16:55:43.753Z,44.07
2023-05-25T16:58:10.674Z,44.22
2023-05-25T17:00:37.619Z,44.38
2023-05-25T17:03:04.768Z,45.06
2023-05-25T17:05:31.562Z,44.61
2023-05-25T17:07:58.457Z,45.12
2023-05-25T17:10:25.306Z,45.32
2023-05-25T17:12:52.131Z,45.57
2023-05-25T17:15:18.911Z,45.70
2023-05-25T17:17:45.712Z,46.72
2023-05-25T17:20:12.660Z,46.75
2023-05-25T17:22:39.461Z,46.80
2023-05-25T17:25:07.441Z,47.08
2023-05-25T17:27:34.188Z,47.71
2023-05-25T17:30:01.011Z,48.38
2023-05-25T17:32:27.800Z,48.30
2023-05-25T17:34:54.608Z,48.56
2023-05-25T17:37:21.453Z,48.97
2023-05-25T17:39:48.437Z,49.51
2023-05-25T17:42:15.158Z,49.69
2023-05-25T17:44:42.641Z,50.17
2023-05-25T17:47:11.209Z,50.12
2023-05-25T17:49:38.336Z,50.18
2023-05-25T17:52:05.543Z,50.38
2023-05-25T17:54:32.425Z,50.29
2023-05-25T17:56:59.226Z,50.32
2023-05-25T17:59:25.954Z,50.31
2023-05-25T18:01:52.807Z,50.63
2023-05-25T18:04:19.938Z,50.45
2023-05-25T18:06:49.899Z,50.49
2023-05-25T18:09:16.964Z,50.11
2023-05-25T18:11:43.705Z,49.89
2023-05-25T18:14:10.520Z,50.02
2023-05-25T18:16:41.712Z,50.93
2023-05-25T18:19:09.550Z,50.89
2023-05-25T18:21:40.368Z,50.69
2023-05-25T18:24:10.940Z,50.43
2023-05-25T18:26:37.725Z,50.56
2023-05-25T18:29:04.629Z,50.37
2023-05-25T18:31:32.607Z,50.61
2023-05-25T18:34:00.395Z,50.71
2023-05-25T18:36:27.177Z,50.87
2023-05-25T18:38:53.918Z,50.93
2023-05-25T18:41:21.520Z,50.94
2023-05-25T18:43:49.198Z,51.19
2023-05-25T18:46:16.751Z,52.03
2023-05-25T18:48:43.624Z,52.12
2023-05-25T18:51:10.782Z,52.56
2023-05-25T18:53:38.660Z,53.22
2023-05-25T18:56:06.813Z,53.15
2023-05-25T18:58:33.509Z,53.42
2023-05-25T19:01:00.352Z,53.56
2023-05-25T19:03:27.748Z,53.51
2023-05-25T19:05:54.765Z,53.75
2023-05-25T19:08:21.728Z,54.29
2023-05-25T19:10:48.596Z,54.18
2023-05-25T19:13:15.453Z,54.05
2023-05-25T19:15:42.178Z,54.44
2023-05-25T19:18:09.037Z,54.51
2023-05-25T19:20:36.995Z,54.34
2023-05-25T19:23:04.207Z,54.75
2023-05-25T19:25:31.238Z,54.71
2023-05-25T19:27:59.717Z,54.94
2023-05-25T19:30:26.599Z,54.58
2023-05-25T19:32:53.454Z,54.67
2023-05-25T19:35:20.234Z,54.91
2023-05-25T19:37:47.012Z,54.65
2023-05-25T19:40:14.102Z,54.52
2023-05-25T19:42:40.882Z,54.90
2023-05-25T19:45:07.939Z,55.03
2023-05-25T19:47:36.038Z,55.12
2023-05-25T19:50:03.198Z,54.95
2023-05-25T19:52:31.043Z,54.74
2023-05-25T19:54:57.769Z,54.79
2023-05-25T19:57:26.252Z,54.66
2023-05-25T19:59:53.743Z,54.60
2023-05-25T20:02:20.877Z,54.64
2023-05-25T20:04:47.746Z,54.55
2023-05-25T20:07:18.269Z,54.52
2023-05-25T20:09:45.667Z,54.24
2023-05-25T20:12:13.765Z,54.21
2023-05-25T20:14:40.718Z,54.24
2023-05-25T20:17:07.498Z,54.60
2023-05-25T20:19:34.285Z,54.57
2023-05-25T20:22:01.962Z,54.46
2023-05-25T20:24:28.717Z,54.64
2023-05-25T20:26:57.011Z,55.16
2023-05-25T20:29:23.964Z,55.51
2023-05-25T20:31:50.914Z,55.37
2023-05-25T20:34:18.228Z,54.97
2023-05-25T20:36:57.059Z,55.14
2023-05-25T20:39:24.008Z,55.22
2023-05-25T20:41:50.928Z,55.47
2023-05-25T20:44:17.674Z,55.06
2023-05-25T20:46:44.506Z,54.98
2023-05-25T20:49:13.436Z,55.07
2023-05-25T20:51:40.354Z,55.00
2023-05-25T20:54:07.076Z,54.88
2023-05-25T20:56:33.881Z,54.77
2023-05-25T20:59:00.872Z,54.87
2023-05-25T21:01:29.553Z,55.00
2023-05-25T21:03:57.739Z,55.09
2023-05-25T21:06:24.664Z,55.30
2023-05-25T21:08:53.030Z,55.41
2023-05-25T21:11:20.983Z,55.34
2023-05-25T21:13:48.425Z,55.55
2023-05-25T21:16:15.329Z,55.39
2023-05-25T21:18:42.198Z,55.56
2023-05-25T21:21:11.257Z,55.64
2023-05-25T21:23:37.991Z,55.82
2023-05-25T21:26:04.823Z,56.03
2023-05-25T21:28:31.605Z,55.65
2023-05-25T21:30:58.380Z,55.96
2023-05-25T21:33:25.202Z,55.77
2023-05-25T21:35:52.166Z,55.51
2023-05-25T21:38:19.137Z,54.98
2023-05-25T21:40:45.938Z,55.40
2023-05-25T21:43:12.767Z,55.45
2023-05-25T21:45:39.505Z,55.32
2023-05-25T21:48:06.297Z,55.77
2023-05-25T21:50:33.123Z,56.12
2023-05-25T21:52:59.901Z,56.27
2023-05-25T21:55:26.742Z,56.10
2023-05-25T21:57:53.833Z,56.35
2023-05-25T22:00:20.865Z,56.32
2023-05-25T22:02:48.912Z,56.58
2023-05-25T22:05:15.910Z,56.81
2023-05-25T22:07:42.692Z,57.03
2023-05-25T22:10:11.757Z,57.18
2023-05-25T22:12:38.550Z,57.34
2023-05-25T22:15:06.618Z,57.31
2023-05-25T22:17:33.467Z,57.29
2023-05-25T22:20:07.984Z,57.40
2023-05-25T22:22:36.647Z,57.65
2023-05-25T22:25:04.343Z,58.04
2023-05-25T22:27:31.106Z,58.26
2023-05-25T22:29:57.900Z,58.47
2023-05-25T22:32:24.738Z,58.74
2023-05-25T22:34:51.474Z,58.90
2023-05-25T22:37:18.363Z,59.13
2023-05-25T22:39:45.102Z,59.52
2023-05-25T22:42:12.014Z,59.60
2023-05-25T22:44:38.988Z,59.92
2023-05-25T22:47:06.670Z,60.11
2023-05-25T22:49:41.178Z,60.43
2023-05-25T22:52:12.166Z,60.62
2023-05-25T22:54:39.160Z,61.03
2023-05-25T22:57:08.238Z,61.42
2023-05-25T22:59:35.031Z,61.62
2023-05-25T23:02:02.179Z,62.16
2023-05-25T23:04:29.014Z,62.40
2023-05-25T23:06:55.830Z,62.74
2023-05-25T23:09:26.069Z,63.03
2023-05-25T23:11:52.783Z,63.29
2023-05-25T23:14:21.148Z,63.56
2023-05-25T23:16:50.505Z,63.61
2023-05-25T23:19:18.144Z,63.81
2023-05-25T23:21:44.907Z,64.09
2023-05-25T23:24:11.816Z,64.15
2023-05-25T23:26:38.511Z,64.54
2023-05-25T23:29:05.349Z,64.69
2023-05-25T23:31:32.225Z,65.04
2023-05-25T23:33:59.009Z,65.22
2023-05-25T23:36:28.819Z,65.42
2023-05-25T23:38:55.791Z,65.75
2023-05-25T23:41:23.218Z,65.95
2023-05-25T23:43:50.163Z,66.19
2023-05-25T23:46:17.494Z,66.08
2023-05-25T23:48:47.098Z,66.36
2023-05-25T23:51:13.890Z,66.38
2023-05-25T23:53:41.068Z,66.40
2023-05-25T23:56:08.164Z,66.42
2023-05-25T23:58:34.977Z,66.49
